sensor_id;sensor_type;location;lat;lon;timestamp;P1;durP1;ratioP1;P2;durP2;ratioP2
665;SDS011;315;48.738;9.126;2023-06-24T00:01:12;7.57;;;6.60;;
665;SDS011;315;48.738;9.126;2023-06-24T00:03:38;7.07;;;6.37;;
665;SDS011;315;48.738;9.126;2023-06-24T00:06:04;6.57;;;5.97;;
665;SDS011;315;48.738;9.126;2023-06-24T00:08:29;6.67;;;6.03;;
665;SDS011;315;48.738;9.126;2023-06-24T00:11:02;6.93;;;6.33;;
665;SDS011;315;48.738;9.126;2023-06-24T00:13:28;7.10;;;6.50;;
665;SDS011;315;48.738;9.126;2023-06-24T00:15:54;7.10;;;6.40;;
665;SDS011;315;48.738;9.126;2023-06-24T00:18:20;6.60;;;6.10;;
665;SDS011;315;48.738;9.126;2023-06-24T00:20:49;7.00;;;6.30;;
665;SDS011;315;48.738;9.126;2023-06-24T00:23:15;7.33;;;6.63;;
665;SDS011;315;48.738;9.126;2023-06-24T00:25:42;6.70;;;6.20;;
665;SDS011;315;48.738;9.126;2023-06-24T00:28:07;8.20;;;7.50;;
665;SDS011;315;48.738;9.126;2023-06-24T00:30:33;6.80;;;6.30;;
665;SDS011;315;48.738;9.126;2023-06-24T00:32:58;6.77;;;6.27;;
665;SDS011;315;48.738;9.126;2023-06-24T00:35:24;7.30;;;6.73;;
665;SDS011;315;48.738;9.126;2023-06-24T00:37:49;7.70;;;7.10;;
665;SDS011;315;48.738;9.126;2023-06-24T00:40:15;7.40;;;6.70;;
665;SDS011;315;48.738;9.126;2023-06-24T00:42:42;7.10;;;6.50;;
665;SDS011;315;48.738;9.126;2023-06-24T00:45:09;7.07;;;6.40;;
665;SDS011;315;48.738;9.126;2023-06-24T00:47:36;9.47;;;6.70;;
665;SDS011;315;48.738;9.126;2023-06-24T00:50:01;7.70;;;7.00;;
665;SDS011;315;48.738;9.126;2023-06-24T00:52:27;7.90;;;7.20;;
665;SDS011;315;48.738;9.126;2023-06-24T00:54:53;7.87;;;7.13;;
665;SDS011;315;48.738;9.126;2023-06-24T00:57:18;6.93;;;6.27;;
665;SDS011;315;48.738;9.126;2023-06-24T00:59:48;6.70;;;5.83;;
665;SDS011;315;48.738;9.126;2023-06-24T01:02:18;7.30;;;6.67;;
665;SDS011;315;48.738;9.126;2023-06-24T01:04:45;8.37;;;7.50;;
665;SDS011;315;48.738;9.126;2023-06-24T01:07:13;6.80;;;6.30;;
665;SDS011;315;48.738;9.126;2023-06-24T01:09:39;8.70;;;7.93;;
665;SDS011;315;48.738;9.126;2023-06-24T01:12:05;7.60;;;7.00;;
665;SDS011;315;48.738;9.126;2023-06-24T01:14:31;7.67;;;6.97;;
665;SDS011;315;48.738;9.126;2023-06-24T01:16:59;8.00;;;7.30;;
665;SDS011;315;48.738;9.126;2023-06-24T01:19:42;7.63;;;6.83;;
665;SDS011;315;48.738;9.126;2023-06-24T01:25:20;7.33;;;6.63;;
665;SDS011;315;48.738;9.126;2023-06-24T01:33:55;7.80;;;7.20;;
665;SDS011;315;48.738;9.126;2023-06-24T01:36:28;7.20;;;6.60;;
665;SDS011;315;48.738;9.126;2023-06-24T01:39:04;7.57;;;6.87;;
665;SDS011;315;48.738;9.126;2023-06-24T01:41:39;7.60;;;7.00;;
665;SDS011;315;48.738;9.126;2023-06-24T01:44:12;8.23;;;7.53;;
665;SDS011;315;48.738;9.126;2023-06-24T01:46:41;7.73;;;7.13;;
665;SDS011;315;48.738;9.126;2023-06-24T01:49:10;9.03;;;8.23;;
665;SDS011;315;48.738;9.126;2023-06-24T01:51:38;7.70;;;7.07;;
665;SDS011;315;48.738;9.126;2023-06-24T01:54:07;9.23;;;8.40;;
665;SDS011;315;48.738;9.126;2023-06-24T01:56:38;9.93;;;8.93;;
665;SDS011;315;48.738;9.126;2023-06-24T01:59:06;8.90;;;8.03;;
665;SDS011;315;48.738;9.126;2023-06-24T02:01:33;11.43;;;10.33;;
665;SDS011;315;48.738;9.126;2023-06-24T02:04:02;10.30;;;9.30;;
665;SDS011;315;48.738;9.126;2023-06-24T02:06:28;9.00;;;8.07;;
665;SDS011;315;48.738;9.126;2023-06-24T02:08:56;9.20;;;8.40;;
665;SDS011;315;48.738;9.126;2023-06-24T02:11:23;8.93;;;8.03;;
665;SDS011;315;48.738;9.126;2023-06-24T02:13:51;9.40;;;8.50;;
665;SDS011;315;48.738;9.126;2023-06-24T02:16:20;8.40;;;7.70;;
665;SDS011;315;48.738;9.126;2023-06-24T02:18:46;8.60;;;7.70;;
665;SDS011;315;48.738;9.126;2023-06-24T02:21:12;12.00;;;9.53;;
665;SDS011;315;48.738;9.126;2023-06-24T02:23:40;9.30;;;8.47;;
665;SDS011;315;48.738;9.126;2023-06-24T02:26:07;9.00;;;8.10;;
665;SDS011;315;48.738;9.126;2023-06-24T02:28:34;7.90;;;7.20;;
665;SDS011;315;48.738;9.126;2023-06-24T02:31:02;8.33;;;7.53;;
665;SDS011;315;48.738;9.126;2023-06-24T02:33:29;8.07;;;7.30;;
665;SDS011;315;48.738;9.126;2023-06-24T02:35:54;9.47;;;8.47;;
665;SDS011;315;48.738;9.126;2023-06-24T02:38:20;8.23;;;7.43;;
665;SDS011;315;48.738;9.126;2023-06-24T02:40:45;8.83;;;8.13;;
665;SDS011;315;48.738;9.126;2023-06-24T02:43:11;9.43;;;8.70;;
665;SDS011;315;48.738;9.126;2023-06-24T02:45:37;9.37;;;8.53;;
665;SDS011;315;48.738;9.126;2023-06-24T02:48:04;8.40;;;7.70;;
665;SDS011;315;48.738;9.126;2023-06-24T02:50:30;9.07;;;8.30;;
665;SDS011;315;48.738;9.126;2023-06-24T02:52:58;9.70;;;8.80;;
665;SDS011;315;48.738;9.126;2023-06-24T02:55:23;9.80;;;8.73;;
665;SDS011;315;48.738;9.126;2023-06-24T02:57:49;9.50;;;8.60;;
665;SDS011;315;48.738;9.126;2023-06-24T03:00:16;8.50;;;7.80;;
665;SDS011;315;48.738;9.126;2023-06-24T03:02:42;10.33;;;9.40;;
665;SDS011;315;48.738;9.126;2023-06-24T03:05:09;8.57;;;7.83;;
665;SDS011;315;48.738;9.126;2023-06-24T03:07:36;8.27;;;7.57;;
665;SDS011;315;48.738;9.126;2023-06-24T03:10:03;8.57;;;7.87;;
665;SDS011;315;48.738;9.126;2023-06-24T03:12:30;8.10;;;7.40;;
665;SDS011;315;48.738;9.126;2023-06-24T03:14:56;8.70;;;7.90;;
665;SDS011;315;48.738;9.126;2023-06-24T03:17:21;8.40;;;7.70;;
665;SDS011;315;48.738;9.126;2023-06-24T03:19:47;9.57;;;8.00;;
665;SDS011;315;48.738;9.126;2023-06-24T03:22:13;8.53;;;7.70;;
665;SDS011;315;48.738;9.126;2023-06-24T03:24:38;9.17;;;8.37;;
665;SDS011;315;48.738;9.126;2023-06-24T03:27:04;7.83;;;7.13;;
665;SDS011;315;48.738;9.126;2023-06-24T03:29:29;8.67;;;7.17;;
665;SDS011;315;48.738;9.126;2023-06-24T03:31:55;8.27;;;7.57;;
665;SDS011;315;48.738;9.126;2023-06-24T03:34:20;8.10;;;7.40;;
665;SDS011;315;48.738;9.126;2023-06-24T03:36:46;8.17;;;7.57;;
665;SDS011;315;48.738;9.126;2023-06-24T03:39:11;8.27;;;7.57;;
665;SDS011;315;48.738;9.126;2023-06-24T03:41:37;8.40;;;6.57;;
665;SDS011;315;48.738;9.126;2023-06-24T03:44:04;9.83;;;8.93;;
665;SDS011;315;48.738;9.126;2023-06-24T03:46:29;9.30;;;8.60;;
665;SDS011;315;48.738;9.126;2023-06-24T03:48:57;8.57;;;7.87;;
665;SDS011;315;48.738;9.126;2023-06-24T03:51:23;8.57;;;7.77;;
665;SDS011;315;48.738;9.126;2023-06-24T03:53:49;8.70;;;7.90;;
665;SDS011;315;48.738;9.126;2023-06-24T03:56:15;9.03;;;7.93;;
665;SDS011;315;48.738;9.126;2023-06-24T03:58:40;8.30;;;7.60;;
665;SDS011;315;48.738;9.126;2023-06-24T04:01:06;8.33;;;7.53;;
665;SDS011;315;48.738;9.126;2023-06-24T04:03:31;8.50;;;7.60;;
665;SDS011;315;48.738;9.126;2023-06-24T04:05:57;8.60;;;7.13;;
665;SDS011;315;48.738;9.126;2023-06-24T04:08:23;8.17;;;7.37;;
665;SDS011;315;48.738;9.126;2023-06-24T04:10:54;8.50;;;7.70;;
665;SDS011;315;48.738;9.126;2023-06-24T04:13:20;8.47;;;7.60;;
665;SDS011;315;48.738;9.126;2023-06-24T04:15:45;8.40;;;7.70;;
665;SDS011;315;48.738;9.126;2023-06-24T04:18:11;7.63;;;7.03;;
665;SDS011;315;48.738;9.126;2023-06-24T04:20:36;7.87;;;7.17;;
665;SDS011;315;48.738;9.126;2023-06-24T04:23:03;8.87;;;8.07;;
665;SDS011;315;48.738;9.126;2023-06-24T04:25:29;8.27;;;7.57;;
665;SDS011;315;48.738;9.126;2023-06-24T04:27:55;8.10;;;7.40;;
665;SDS011;315;48.738;9.126;2023-06-24T04:30:20;8.50;;;7.80;;
665;SDS011;315;48.738;9.126;2023-06-24T04:32:45;8.80;;;7.07;;
665;SDS011;315;48.738;9.126;2023-06-24T04:35:11;8.90;;;8.00;;
665;SDS011;315;48.738;9.126;2023-06-24T04:37:37;8.43;;;7.33;;
665;SDS011;315;48.738;9.126;2023-06-24T04:40:02;8.93;;;8.13;;
665;SDS011;315;48.738;9.126;2023-06-24T04:42:28;8.23;;;7.43;;
665;SDS011;315;48.738;9.126;2023-06-24T04:44:55;8.10;;;7.30;;
665;SDS011;315;48.738;9.126;2023-06-24T04:47:20;7.73;;;7.10;;
665;SDS011;315;48.738;9.126;2023-06-24T04:49:46;8.83;;;7.23;;
665;SDS011;315;48.738;9.126;2023-06-24T04:52:11;8.47;;;7.57;;
665;SDS011;315;48.738;9.126;2023-06-24T04:54:37;9.57;;;7.63;;
665;SDS011;315;48.738;9.126;2023-06-24T04:57:06;7.87;;;7.10;;
665;SDS011;315;48.738;9.126;2023-06-24T04:59:34;8.10;;;7.30;;
665;SDS011;315;48.738;9.126;2023-06-24T05:01:59;12.87;;;7.30;;
665;SDS011;315;48.738;9.126;2023-06-24T05:04:25;8.50;;;7.60;;
665;SDS011;315;48.738;9.126;2023-06-24T05:06:50;8.53;;;7.73;;
665;SDS011;315;48.738;9.126;2023-06-24T05:09:16;8.77;;;7.97;;
665;SDS011;315;48.738;9.126;2023-06-24T05:11:42;8.73;;;7.83;;
665;SDS011;315;48.738;9.126;2023-06-24T05:14:07;8.13;;;7.43;;
665;SDS011;315;48.738;9.126;2023-06-24T05:16:33;8.80;;;8.00;;
665;SDS011;315;48.738;9.126;2023-06-24T05:18:59;10.13;;;7.93;;
665;SDS011;315;48.738;9.126;2023-06-24T05:21:24;8.70;;;7.77;;
665;SDS011;315;48.738;9.126;2023-06-24T05:23:50;9.30;;;8.60;;
665;SDS011;315;48.738;9.126;2023-06-24T05:26:15;8.83;;;7.20;;
665;SDS011;315;48.738;9.126;2023-06-24T05:28:41;8.70;;;8.00;;
665;SDS011;315;48.738;9.126;2023-06-24T05:31:06;8.93;;;8.13;;
665;SDS011;315;48.738;9.126;2023-06-24T05:33:32;8.57;;;7.70;;
665;SDS011;315;48.738;9.126;2023-06-24T05:35:57;9.23;;;8.53;;
665;SDS011;315;48.738;9.126;2023-06-24T05:38:23;7.13;;;6.53;;
665;SDS011;315;48.738;9.126;2023-06-24T05:40:48;7.57;;;6.93;;
665;SDS011;315;48.738;9.126;2023-06-24T05:43:14;8.00;;;7.30;;
665;SDS011;315;48.738;9.126;2023-06-24T05:45:39;7.20;;;6.70;;
665;SDS011;315;48.738;9.126;2023-06-24T05:48:05;7.90;;;7.17;;
665;SDS011;315;48.738;9.126;2023-06-24T05:50:30;7.70;;;7.10;;
665;SDS011;315;48.738;9.126;2023-06-24T05:52:56;6.67;;;6.07;;
665;SDS011;315;48.738;9.126;2023-06-24T05:55:22;7.63;;;7.07;;
665;SDS011;315;48.738;9.126;2023-06-24T05:57:48;9.90;;;8.90;;
665;SDS011;315;48.738;9.126;2023-06-24T06:00:13;7.60;;;6.90;;
665;SDS011;315;48.738;9.126;2023-06-24T06:02:39;6.27;;;5.73;;
665;SDS011;315;48.738;9.126;2023-06-24T06:05:04;6.80;;;6.30;;
665;SDS011;315;48.738;9.126;2023-06-24T06:07:30;5.93;;;5.43;;
665;SDS011;315;48.738;9.126;2023-06-24T06:09:56;6.40;;;5.90;;
665;SDS011;315;48.738;9.126;2023-06-24T06:12:21;8.57;;;7.77;;
665;SDS011;315;48.738;9.126;2023-06-24T06:14:47;8.97;;;6.60;;
665;SDS011;315;48.738;9.126;2023-06-24T06:17:13;6.97;;;6.27;;
665;SDS011;315;48.738;9.126;2023-06-24T06:19:39;6.23;;;5.73;;
665;SDS011;315;48.738;9.126;2023-06-24T06:22:06;7.70;;;5.60;;
665;SDS011;315;48.738;9.126;2023-06-24T06:24:32;6.23;;;5.63;;
665;SDS011;315;48.738;9.126;2023-06-24T06:26:58;6.13;;;5.53;;
665;SDS011;315;48.738;9.126;2023-06-24T06:29:24;5.73;;;5.30;;
665;SDS011;315;48.738;9.126;2023-06-24T06:31:50;5.90;;;5.40;;
665;SDS011;315;48.738;9.126;2023-06-24T06:34:15;5.80;;;5.10;;
665;SDS011;315;48.738;9.126;2023-06-24T06:36:41;6.90;;;5.13;;
665;SDS011;315;48.738;9.126;2023-06-24T06:39:06;5.63;;;5.00;;
665;SDS011;315;48.738;9.126;2023-06-24T06:41:32;5.80;;;5.30;;
665;SDS011;315;48.738;9.126;2023-06-24T06:43:57;5.87;;;5.30;;
665;SDS011;315;48.738;9.126;2023-06-24T06:46:22;5.33;;;4.43;;
665;SDS011;315;48.738;9.126;2023-06-24T06:48:48;4.47;;;4.17;;
665;SDS011;315;48.738;9.126;2023-06-24T06:51:13;5.33;;;4.80;;
665;SDS011;315;48.738;9.126;2023-06-24T06:53:39;5.33;;;4.70;;
665;SDS011;315;48.738;9.126;2023-06-24T06:56:05;6.13;;;5.10;;
665;SDS011;315;48.738;9.126;2023-06-24T06:58:30;6.30;;;5.80;;
665;SDS011;315;48.738;9.126;2023-06-24T07:00:56;5.70;;;5.20;;
665;SDS011;315;48.738;9.126;2023-06-24T07:03:26;5.50;;;5.10;;
665;SDS011;315;48.738;9.126;2023-06-24T07:05:52;4.87;;;4.47;;
665;SDS011;315;48.738;9.126;2023-06-24T07:08:18;6.10;;;5.00;;
665;SDS011;315;48.738;9.126;2023-06-24T07:10:43;5.23;;;4.77;;
665;SDS011;315;48.738;9.126;2023-06-24T07:13:09;5.63;;;5.13;;
665;SDS011;315;48.738;9.126;2023-06-24T07:15:35;5.27;;;4.77;;
665;SDS011;315;48.738;9.126;2023-06-24T07:18:00;5.43;;;5.03;;
665;SDS011;315;48.738;9.126;2023-06-24T07:20:26;5.90;;;5.00;;
665;SDS011;315;48.738;9.126;2023-06-24T07:22:51;5.23;;;4.73;;
665;SDS011;315;48.738;9.126;2023-06-24T07:25:17;5.07;;;4.67;;
665;SDS011;315;48.738;9.126;2023-06-24T07:27:42;4.50;;;4.10;;
665;SDS011;315;48.738;9.126;2023-06-24T07:30:08;4.50;;;4.10;;
665;SDS011;315;48.738;9.126;2023-06-24T07:32:34;4.53;;;4.23;;
665;SDS011;315;48.738;9.126;2023-06-24T07:34:59;6.80;;;6.20;;
665;SDS011;315;48.738;9.126;2023-06-24T07:37:24;5.37;;;4.90;;
665;SDS011;315;48.738;9.126;2023-06-24T07:39:51;6.83;;;6.23;;
665;SDS011;315;48.738;9.126;2023-06-24T07:42:16;5.93;;;4.57;;
665;SDS011;315;48.738;9.126;2023-06-24T07:44:47;5.70;;;5.30;;
665;SDS011;315;48.738;9.126;2023-06-24T07:47:12;5.70;;;5.20;;
665;SDS011;315;48.738;9.126;2023-06-24T07:49:38;6.20;;;5.70;;
665;SDS011;315;48.738;9.126;2023-06-24T07:52:04;6.03;;;5.53;;
665;SDS011;315;48.738;9.126;2023-06-24T07:54:30;5.30;;;4.43;;
665;SDS011;315;48.738;9.126;2023-06-24T07:56:55;5.77;;;5.03;;
665;SDS011;315;48.738;9.126;2023-06-24T07:59:21;5.07;;;4.63;;
665;SDS011;315;48.738;9.126;2023-06-24T08:01:46;5.67;;;5.17;;
665;SDS011;315;48.738;9.126;2023-06-24T08:04:12;5.20;;;4.80;;
665;SDS011;315;48.738;9.126;2023-06-24T08:06:38;6.07;;;5.63;;
665;SDS011;315;48.738;9.126;2023-06-24T08:09:04;6.40;;;5.80;;
665;SDS011;315;48.738;9.126;2023-06-24T08:11:30;5.90;;;5.47;;
665;SDS011;315;48.738;9.126;2023-06-24T08:13:55;4.90;;;4.50;;
665;SDS011;315;48.738;9.126;2023-06-24T08:16:21;5.60;;;5.10;;
665;SDS011;315;48.738;9.126;2023-06-24T08:18:46;5.47;;;5.07;;
665;SDS011;315;48.738;9.126;2023-06-24T08:21:12;6.23;;;5.73;;
665;SDS011;315;48.738;9.126;2023-06-24T08:23:37;5.57;;;5.10;;
665;SDS011;315;48.738;9.126;2023-06-24T08:26:03;5.03;;;4.73;;
665;SDS011;315;48.738;9.126;2023-06-24T08:28:29;6.00;;;4.50;;
665;SDS011;315;48.738;9.126;2023-06-24T08:30:54;5.33;;;4.93;;
665;SDS011;315;48.738;9.126;2023-06-24T08:33:20;5.77;;;5.20;;
665;SDS011;315;48.738;9.126;2023-06-24T08:35:45;5.57;;;5.07;;
665;SDS011;315;48.738;9.126;2023-06-24T08:38:11;5.30;;;4.90;;
665;SDS011;315;48.738;9.126;2023-06-24T08:40:36;5.20;;;4.70;;
665;SDS011;315;48.738;9.126;2023-06-24T08:43:05;5.20;;;4.80;;
665;SDS011;315;48.738;9.126;2023-06-24T08:45:31;5.00;;;4.63;;
665;SDS011;315;48.738;9.126;2023-06-24T08:47:57;5.87;;;5.37;;
665;SDS011;315;48.738;9.126;2023-06-24T08:50:26;5.97;;;5.57;;
665;SDS011;315;48.738;9.126;2023-06-24T08:52:55;5.20;;;4.80;;
665;SDS011;315;48.738;9.126;2023-06-24T08:55:22;6.20;;;5.70;;
665;SDS011;315;48.738;9.126;2023-06-24T08:57:51;5.60;;;5.20;;
665;SDS011;315;48.738;9.126;2023-06-24T09:00:17;5.77;;;4.30;;
665;SDS011;315;48.738;9.126;2023-06-24T09:02:43;5.70;;;5.30;;
665;SDS011;315;48.738;9.126;2023-06-24T09:05:08;5.03;;;4.63;;
665;SDS011;315;48.738;9.126;2023-06-24T09:07:34;4.53;;;4.23;;
665;SDS011;315;48.738;9.126;2023-06-24T09:09:59;4.77;;;4.47;;
665;SDS011;315;48.738;9.126;2023-06-24T09:12:25;6.07;;;5.57;;
665;SDS011;315;48.738;9.126;2023-06-24T09:14:51;5.23;;;4.83;;
665;SDS011;315;48.738;9.126;2023-06-24T09:17:17;5.73;;;5.33;;
665;SDS011;315;48.738;9.126;2023-06-24T09:19:46;5.03;;;4.33;;
665;SDS011;315;48.738;9.126;2023-06-24T09:22:12;4.57;;;4.17;;
665;SDS011;315;48.738;9.126;2023-06-24T09:24:42;4.83;;;4.43;;
665;SDS011;315;48.738;9.126;2023-06-24T09:27:12;4.67;;;4.27;;
665;SDS011;315;48.738;9.126;2023-06-24T09:29:45;5.17;;;4.77;;
665;SDS011;315;48.738;9.126;2023-06-24T09:32:12;5.97;;;5.37;;
665;SDS011;315;48.738;9.126;2023-06-24T09:34:37;5.50;;;5.03;;
665;SDS011;315;48.738;9.126;2023-06-24T09:37:03;4.93;;;4.40;;
665;SDS011;315;48.738;9.126;2023-06-24T09:39:34;4.97;;;4.57;;
665;SDS011;315;48.738;9.126;2023-06-24T09:42:02;5.70;;;5.30;;
665;SDS011;315;48.738;9.126;2023-06-24T09:44:29;5.70;;;5.17;;
665;SDS011;315;48.738;9.126;2023-06-24T09:46:55;4.97;;;4.60;;
665;SDS011;315;48.738;9.126;2023-06-24T09:49:21;5.23;;;4.83;;
665;SDS011;315;48.738;9.126;2023-06-24T09:51:47;6.80;;;6.20;;
665;SDS011;315;48.738;9.126;2023-06-24T09:54:21;4.80;;;4.40;;
665;SDS011;315;48.738;9.126;2023-06-24T09:56:49;5.07;;;4.67;;
665;SDS011;315;48.738;9.126;2023-06-24T09:59:17;7.60;;;4.70;;
665;SDS011;315;48.738;9.126;2023-06-24T10:01:47;5.23;;;4.83;;
665;SDS011;315;48.738;9.126;2023-06-24T10:04:17;4.90;;;4.37;;
665;SDS011;315;48.738;9.126;2023-06-24T10:06:45;5.60;;;4.40;;
665;SDS011;315;48.738;9.126;2023-06-24T10:09:11;4.93;;;3.90;;
665;SDS011;315;48.738;9.126;2023-06-24T10:11:42;4.60;;;4.30;;
665;SDS011;315;48.738;9.126;2023-06-24T10:14:09;5.07;;;4.67;;
665;SDS011;315;48.738;9.126;2023-06-24T10:16:34;5.43;;;5.13;;
665;SDS011;315;48.738;9.126;2023-06-24T10:19:00;4.43;;;4.13;;
665;SDS011;315;48.738;9.126;2023-06-24T10:24:27;3.40;;;3.20;;
665;SDS011;315;48.738;9.126;2023-06-24T10:27:00;4.10;;;3.90;;
665;SDS011;315;48.738;9.126;2023-06-24T10:29:33;4.20;;;3.90;;
665;SDS011;315;48.738;9.126;2023-06-24T10:32:02;4.10;;;3.90;;
665;SDS011;315;48.738;9.126;2023-06-24T10:39:45;3.70;;;3.40;;
665;SDS011;315;48.738;9.126;2023-06-24T10:47:33;3.80;;;3.60;;
665;SDS011;315;48.738;9.126;2023-06-24T10:49:59;4.93;;;3.80;;
665;SDS011;315;48.738;9.126;2023-06-24T10:52:25;4.17;;;3.87;;
665;SDS011;315;48.738;9.126;2023-06-24T10:54:51;4.53;;;4.13;;
665;SDS011;315;48.738;9.126;2023-06-24T10:57:21;5.40;;;4.33;;
665;SDS011;315;48.738;9.126;2023-06-24T10:59:51;5.17;;;4.67;;
665;SDS011;315;48.738;9.126;2023-06-24T11:02:25;4.53;;;4.27;;
665;SDS011;315;48.738;9.126;2023-06-24T11:04:52;3.87;;;3.57;;
665;SDS011;315;48.738;9.126;2023-06-24T11:07:22;4.73;;;4.33;;
665;SDS011;315;48.738;9.126;2023-06-24T11:09:54;5.07;;;4.67;;
665;SDS011;315;48.738;9.126;2023-06-24T11:12:24;4.73;;;4.43;;
665;SDS011;315;48.738;9.126;2023-06-24T11:14:51;4.33;;;4.00;;
665;SDS011;315;48.738;9.126;2023-06-24T11:17:20;4.77;;;4.40;;
665;SDS011;315;48.738;9.126;2023-06-24T11:19:46;4.30;;;4.00;;
665;SDS011;315;48.738;9.126;2023-06-24T11:22:11;3.70;;;3.50;;
665;SDS011;315;48.738;9.126;2023-06-24T11:24:37;4.53;;;4.23;;
665;SDS011;315;48.738;9.126;2023-06-24T11:27:04;3.97;;;3.73;;
665;SDS011;315;48.738;9.126;2023-06-24T11:29:30;5.00;;;4.60;;
665;SDS011;315;48.738;9.126;2023-06-24T11:31:57;4.53;;;4.23;;
665;SDS011;315;48.738;9.126;2023-06-24T11:34:23;4.30;;;4.00;;
665;SDS011;315;48.738;9.126;2023-06-24T11:36:49;4.40;;;4.10;;
665;SDS011;315;48.738;9.126;2023-06-24T11:39:24;4.13;;;3.93;;
665;SDS011;315;48.738;9.126;2023-06-24T11:41:51;4.80;;;4.50;;
665;SDS011;315;48.738;9.126;2023-06-24T11:44:20;4.33;;;4.03;;
665;SDS011;315;48.738;9.126;2023-06-24T11:46:48;4.83;;;4.47;;
665;SDS011;315;48.738;9.126;2023-06-24T11:49:14;5.00;;;4.70;;
665;SDS011;315;48.738;9.126;2023-06-24T11:51:49;5.90;;;5.50;;
665;SDS011;315;48.738;9.126;2023-06-24T11:54:17;5.00;;;4.73;;
665;SDS011;315;48.738;9.126;2023-06-24T11:56:44;4.50;;;4.20;;
665;SDS011;315;48.738;9.126;2023-06-24T11:59:15;4.27;;;4.00;;
665;SDS011;315;48.738;9.126;2023-06-24T12:01:57;5.00;;;4.70;;
665;SDS011;315;48.738;9.126;2023-06-24T12:04:28;5.00;;;4.70;;
665;SDS011;315;48.738;9.126;2023-06-24T12:06:54;4.53;;;4.13;;
665;SDS011;315;48.738;9.126;2023-06-24T12:09:19;4.63;;;4.33;;
665;SDS011;315;48.738;9.126;2023-06-24T12:11:45;5.00;;;4.70;;
665;SDS011;315;48.738;9.126;2023-06-24T12:14:11;5.43;;;5.03;;
665;SDS011;315;48.738;9.126;2023-06-24T12:16:37;5.10;;;4.80;;
665;SDS011;315;48.738;9.126;2023-06-24T12:19:03;4.67;;;4.37;;
665;SDS011;315;48.738;9.126;2023-06-24T12:21:29;5.07;;;4.67;;
665;SDS011;315;48.738;9.126;2023-06-24T12:23:54;5.57;;;4.53;;
665;SDS011;315;48.738;9.126;2023-06-24T12:26:20;4.53;;;4.23;;
665;SDS011;315;48.738;9.126;2023-06-24T12:28:45;5.03;;;4.63;;
665;SDS011;315;48.738;9.126;2023-06-24T12:31:11;4.37;;;4.17;;
665;SDS011;315;48.738;9.126;2023-06-24T12:33:36;4.67;;;4.40;;
665;SDS011;315;48.738;9.126;2023-06-24T12:36:02;4.93;;;4.53;;
665;SDS011;315;48.738;9.126;2023-06-24T12:38:28;4.70;;;4.47;;
665;SDS011;315;48.738;9.126;2023-06-24T12:40:53;4.53;;;4.20;;
665;SDS011;315;48.738;9.126;2023-06-24T12:43:19;4.50;;;4.20;;
665;SDS011;315;48.738;9.126;2023-06-24T12:45:44;4.20;;;3.93;;
665;SDS011;315;48.738;9.126;2023-06-24T12:48:10;3.83;;;3.63;;
665;SDS011;315;48.738;9.126;2023-06-24T12:50:36;4.57;;;4.27;;
665;SDS011;315;48.738;9.126;2023-06-24T12:53:02;4.80;;;4.50;;
665;SDS011;315;48.738;9.126;2023-06-24T12:55:28;4.40;;;4.10;;
665;SDS011;315;48.738;9.126;2023-06-24T12:57:54;4.50;;;4.20;;
665;SDS011;315;48.738;9.126;2023-06-24T13:00:20;4.23;;;3.93;;
665;SDS011;315;48.738;9.126;2023-06-24T13:02:46;4.87;;;4.50;;
665;SDS011;315;48.738;9.126;2023-06-24T13:05:12;5.03;;;4.77;;
665;SDS011;315;48.738;9.126;2023-06-24T13:07:38;4.43;;;4.13;;
665;SDS011;315;48.738;9.126;2023-06-24T13:10:04;4.50;;;4.23;;
665;SDS011;315;48.738;9.126;2023-06-24T13:12:31;5.13;;;4.83;;
665;SDS011;315;48.738;9.126;2023-06-24T13:14:57;4.90;;;4.60;;
665;SDS011;315;48.738;9.126;2023-06-24T13:17:23;5.13;;;4.83;;
665;SDS011;315;48.738;9.126;2023-06-24T13:19:49;4.30;;;4.10;;
665;SDS011;315;48.738;9.126;2023-06-24T13:22:15;4.77;;;4.47;;
665;SDS011;315;48.738;9.126;2023-06-24T13:24:41;4.43;;;4.23;;
665;SDS011;315;48.738;9.126;2023-06-24T13:27:06;4.43;;;4.20;;
665;SDS011;315;48.738;9.126;2023-06-24T13:29:32;5.37;;;5.07;;
665;SDS011;315;48.738;9.126;2023-06-24T13:31:58;4.53;;;4.23;;
665;SDS011;315;48.738;9.126;2023-06-24T13:34:23;4.20;;;4.00;;
665;SDS011;315;48.738;9.126;2023-06-24T13:36:49;4.40;;;4.00;;
665;SDS011;315;48.738;9.126;2023-06-24T13:39:14;4.97;;;4.57;;
665;SDS011;315;48.738;9.126;2023-06-24T13:41:42;4.60;;;4.30;;
665;SDS011;315;48.738;9.126;2023-06-24T13:44:09;4.20;;;3.90;;
665;SDS011;315;48.738;9.126;2023-06-24T13:46:34;4.60;;;4.30;;
665;SDS011;315;48.738;9.126;2023-06-24T13:49:00;4.83;;;4.43;;
665;SDS011;315;48.738;9.126;2023-06-24T13:51:26;5.83;;;5.43;;
665;SDS011;315;48.738;9.126;2023-06-24T13:53:52;5.00;;;4.70;;
665;SDS011;315;48.738;9.126;2023-06-24T13:56:19;5.47;;;5.07;;
665;SDS011;315;48.738;9.126;2023-06-24T13:58:46;4.20;;;3.80;;
665;SDS011;315;48.738;9.126;2023-06-24T14:01:12;4.20;;;3.90;;
665;SDS011;315;48.738;9.126;2023-06-24T14:03:37;4.57;;;4.17;;
665;SDS011;315;48.738;9.126;2023-06-24T14:06:03;4.30;;;4.00;;
665;SDS011;315;48.738;9.126;2023-06-24T14:08:29;4.90;;;4.20;;
665;SDS011;315;48.738;9.126;2023-06-24T14:10:56;5.00;;;4.60;;
665;SDS011;315;48.738;9.126;2023-06-24T14:13:22;4.20;;;3.87;;
665;SDS011;315;48.738;9.126;2023-06-24T14:15:48;5.30;;;4.90;;
665;SDS011;315;48.738;9.126;2023-06-24T14:18:13;5.00;;;4.60;;
665;SDS011;315;48.738;9.126;2023-06-24T14:20:39;4.27;;;3.97;;
665;SDS011;315;48.738;9.126;2023-06-24T14:23:05;5.33;;;4.00;;
665;SDS011;315;48.738;9.126;2023-06-24T14:25:30;4.60;;;4.30;;
665;SDS011;315;48.738;9.126;2023-06-24T14:27:56;4.90;;;4.60;;
665;SDS011;315;48.738;9.126;2023-06-24T14:30:22;6.03;;;5.53;;
665;SDS011;315;48.738;9.126;2023-06-24T14:32:47;4.90;;;4.50;;
665;SDS011;315;48.738;9.126;2023-06-24T14:35:13;4.80;;;4.50;;
665;SDS011;315;48.738;9.126;2023-06-24T14:37:38;4.60;;;4.30;;
665;SDS011;315;48.738;9.126;2023-06-24T14:40:04;4.83;;;4.53;;
665;SDS011;315;48.738;9.126;2023-06-24T14:42:31;4.80;;;4.30;;
665;SDS011;315;48.738;9.126;2023-06-24T14:44:56;4.80;;;4.40;;
665;SDS011;315;48.738;9.126;2023-06-24T14:47:22;5.20;;;4.80;;
665;SDS011;315;48.738;9.126;2023-06-24T14:49:47;5.23;;;4.77;;
665;SDS011;315;48.738;9.126;2023-06-24T14:52:13;4.70;;;4.40;;
665;SDS011;315;48.738;9.126;2023-06-24T14:54:39;5.00;;;4.70;;
665;SDS011;315;48.738;9.126;2023-06-24T14:57:04;4.83;;;4.43;;
665;SDS011;315;48.738;9.126;2023-06-24T14:59:30;4.23;;;3.83;;
665;SDS011;315;48.738;9.126;2023-06-24T15:01:55;5.20;;;4.80;;
665;SDS011;315;48.738;9.126;2023-06-24T15:04:21;4.47;;;4.17;;
665;SDS011;315;48.738;9.126;2023-06-24T15:06:46;4.90;;;4.50;;
665;SDS011;315;48.738;9.126;2023-06-24T15:09:12;4.70;;;4.37;;
665;SDS011;315;48.738;9.126;2023-06-24T15:11:37;4.40;;;4.10;;
665;SDS011;315;48.738;9.126;2023-06-24T15:14:02;4.50;;;4.20;;
665;SDS011;315;48.738;9.126;2023-06-24T15:16:28;4.77;;;4.37;;
665;SDS011;315;48.738;9.126;2023-06-24T15:18:53;4.70;;;4.33;;
665;SDS011;315;48.738;9.126;2023-06-24T15:21:19;4.60;;;4.23;;
665;SDS011;315;48.738;9.126;2023-06-24T15:23:45;4.57;;;4.27;;
665;SDS011;315;48.738;9.126;2023-06-24T15:26:11;6.43;;;4.83;;
665;SDS011;315;48.738;9.126;2023-06-24T15:28:37;5.33;;;4.97;;
665;SDS011;315;48.738;9.126;2023-06-24T15:31:02;4.93;;;4.03;;
665;SDS011;315;48.738;9.126;2023-06-24T15:33:28;4.73;;;4.20;;
665;SDS011;315;48.738;9.126;2023-06-24T15:35:53;6.17;;;5.67;;
665;SDS011;315;48.738;9.126;2023-06-24T15:38:20;5.03;;;4.33;;
665;SDS011;315;48.738;9.126;2023-06-24T15:40:45;5.13;;;4.73;;
665;SDS011;315;48.738;9.126;2023-06-24T15:43:11;5.50;;;5.00;;
665;SDS011;315;48.738;9.126;2023-06-24T15:45:38;3.90;;;3.70;;
665;SDS011;315;48.738;9.126;2023-06-24T15:48:04;4.97;;;4.53;;
665;SDS011;315;48.738;9.126;2023-06-24T15:50:30;4.83;;;4.50;;
665;SDS011;315;48.738;9.126;2023-06-24T15:52:55;5.20;;;4.70;;
665;SDS011;315;48.738;9.126;2023-06-24T15:55:21;5.10;;;4.70;;
665;SDS011;315;48.738;9.126;2023-06-24T15:57:46;5.80;;;4.77;;
665;SDS011;315;48.738;9.126;2023-06-24T16:00:12;4.80;;;4.50;;
665;SDS011;315;48.738;9.126;2023-06-24T16:02:38;4.10;;;3.80;;